createdAt,value
2018-03-25T00:00:56.174Z,42.95
2018-03-25T00:03:22.826Z,36.40
2018-03-25T00:05:49.465Z,37.75
2018-03-25T00:08:16.101Z,39.67
2018-03-25T00:10:42.744Z,39.03
2018-03-25T00:13:09.382Z,41.95
2018-03-25T00:15:36.039Z,45.67
2018-03-25T00:18:02.755Z,38.05
2018-03-25T00:20:29.405Z,39.45
2018-03-25T00:22:56.037Z,37.63
2018-03-25T00:25:22.667Z,32.97
2018-03-25T00:27:49.317Z,40.67
2018-03-25T00:30:15.961Z,44.33
2018-03-25T00:32:42.687Z,36.35
2018-03-25T00:35:09.333Z,34.40
2018-03-25T00:37:35.972Z,40.58
2018-03-25T00:40:02.617Z,37.95
2018-03-25T00:42:29.248Z,39.13
2018-03-25T00:44:55.893Z,39.80
2018-03-25T00:47:22.620Z,36.65
2018-03-25T00:49:49.369Z,40.97
2018-03-25T00:52:16.007Z,36.28
2018-03-25T00:54:42.776Z,43.75
2018-03-25T00:57:09.451Z,46.65
2018-03-25T00:59:36.128Z,46.10
2018-03-25T01:02:02.812Z,42.40
2018-03-25T01:04:29.509Z,40.78
2018-03-25T01:06:56.150Z,37.75
2018-03-25T01:09:22.884Z,40.15
2018-03-25T01:11:49.529Z,44.35
2018-03-25T01:14:16.276Z,38.70
2018-03-25T01:16:42.916Z,36.22
2018-03-25T01:19:09.545Z,46.20
2018-03-25T01:21:36.184Z,37.80
2018-03-25T01:24:02.832Z,39.90
2018-03-25T01:26:29.468Z,39.28
2018-03-25T01:28:56.206Z,40.20
2018-03-25T01:31:22.855Z,38.88
2018-03-25T01:33:49.489Z,40.78
2018-03-25T01:36:16.129Z,38.05
2018-03-25T01:38:42.757Z,43.90
2018-03-25T01:41:09.509Z,42.55
2018-03-25T01:43:36.140Z,43.15
2018-03-25T01:46:02.764Z,42.65
2018-03-25T01:48:29.403Z,43.20
2018-03-25T01:50:56.055Z,42.50
2018-03-25T01:53:22.696Z,42.65
2018-03-25T01:55:49.322Z,39.40
2018-03-25T01:58:15.969Z,42.47
2018-03-25T02:00:42.612Z,45.25
2018-03-25T02:03:09.248Z,38.97
2018-03-25T02:05:35.869Z,39.33
2018-03-25T02:08:02.529Z,39.70
2018-03-25T02:10:29.172Z,45.67
2018-03-25T02:12:55.839Z,50.40
2018-03-25T02:15:22.557Z,41.47
2018-03-25T02:17:49.297Z,46.83
2018-03-25T02:20:15.924Z,48.65
2018-03-25T02:22:42.682Z,35.95
2018-03-25T02:25:09.426Z,37.78
2018-03-25T02:27:36.066Z,39.40
2018-03-25T02:30:02.812Z,40.63
2018-03-25T02:32:29.462Z,38.97
2018-03-25T02:34:56.184Z,43.05
2018-03-25T02:37:22.916Z,40.25
2018-03-25T02:39:49.659Z,37.63
2018-03-25T02:42:16.292Z,41.85
2018-03-25T02:44:43.040Z,41.58
2018-03-25T02:47:09.665Z,38.85
2018-03-25T02:49:36.321Z,40.58
2018-03-25T02:52:03.063Z,37.47
2018-03-25T02:54:29.804Z,41.15
2018-03-25T02:56:56.447Z,35.03
2018-03-25T02:59:23.091Z,40.95
2018-03-25T03:01:49.725Z,38.13
2018-03-25T03:04:16.460Z,39.75
2018-03-25T03:06:43.091Z,36.95
2018-03-25T03:09:09.728Z,39.47
2018-03-25T03:11:36.352Z,42.70
2018-03-25T03:14:03.021Z,44.78
2018-03-25T03:16:29.652Z,41.17
2018-03-25T03:18:56.293Z,48.67
2018-03-25T03:21:22.943Z,46.80
2018-03-25T03:23:49.602Z,48.33
2018-03-25T03:26:16.317Z,44.38
2018-03-25T03:28:42.963Z,51.20
2018-03-25T03:31:09.610Z,46.53
2018-03-25T03:33:36.232Z,42.42
2018-03-25T03:36:02.981Z,42.45
2018-03-25T03:38:29.621Z,50.35
2018-03-25T03:40:56.364Z,43.30
2018-03-25T03:43:22.988Z,43.15
2018-03-25T03:45:49.623Z,42.90
2018-03-25T03:48:16.253Z,37.55
2018-03-25T03:50:42.900Z,40.42
2018-03-25T03:53:09.533Z,34.58
2018-03-25T03:55:36.173Z,42.08
2018-03-25T03:58:02.828Z,41.72
2018-03-25T04:00:29.467Z,37.63
2018-03-25T04:02:56.213Z,36.55
2018-03-25T04:05:22.844Z,36.30
2018-03-25T04:07:49.478Z,42.10
2018-03-25T04:10:16.233Z,40.75
2018-03-25T04:12:42.855Z,42.20
2018-03-25T04:15:09.494Z,37.95
2018-03-25T04:17:36.250Z,35.47
2018-03-25T04:20:02.893Z,47.85
2018-03-25T04:22:29.528Z,44.25
2018-03-25T04:24:56.295Z,40.72
2018-03-25T04:27:22.932Z,38.10
2018-03-25T04:29:49.560Z,42.75
2018-03-25T04:32:16.205Z,34.45
2018-03-25T04:34:42.929Z,39.05
2018-03-25T04:37:09.572Z,42.15
2018-03-25T04:39:36.300Z,35.50
2018-03-25T04:42:03.054Z,37.88
2018-03-25T04:44:29.688Z,42.62
2018-03-25T04:46:56.333Z,39.92
2018-03-25T04:49:22.969Z,38.80
2018-03-25T04:51:49.620Z,39.78
2018-03-25T04:54:16.253Z,35.70
2018-03-25T04:56:42.945Z,31.33
2018-03-25T04:59:09.679Z,40.25
2018-03-25T05:01:36.306Z,37.95
2018-03-25T05:04:02.941Z,41.28
2018-03-25T05:06:29.645Z,39.80
2018-03-25T05:08:56.284Z,35.63
2018-03-25T05:11:23.016Z,40.95
2018-03-25T05:13:49.666Z,39.40
2018-03-25T05:16:16.296Z,35.28
2018-03-25T05:18:42.928Z,37.42
2018-03-25T05:21:09.589Z,41.60
2018-03-25T05:23:36.232Z,33.33
2018-03-25T05:26:02.865Z,42.83
2018-03-25T05:28:29.594Z,36.58
2018-03-25T05:30:56.224Z,43.17
2018-03-25T05:33:22.865Z,39.25
2018-03-25T05:35:49.520Z,40.40
2018-03-25T05:38:16.256Z,38.88
2018-03-25T05:40:42.906Z,39.28
2018-03-25T05:43:09.555Z,39.40
2018-03-25T05:45:36.180Z,38.58
2018-03-25T05:48:02.826Z,42.00
2018-03-25T05:50:29.448Z,39.03
2018-03-25T05:52:56.192Z,44.22
2018-03-25T05:55:22.824Z,38.15
2018-03-25T05:57:49.459Z,38.35
2018-03-25T06:00:16.100Z,39.38
2018-03-25T06:02:42.752Z,41.25
2018-03-25T06:05:09.396Z,44.40
2018-03-25T06:07:36.037Z,43.40
2018-03-25T06:10:02.764Z,45.28
2018-03-25T06:12:29.408Z,37.08
2018-03-25T06:14:56.044Z,39.67
2018-03-25T06:17:22.714Z,37.30
2018-03-25T06:19:49.365Z,44.83
2018-03-25T06:22:15.990Z,36.38
2018-03-25T06:24:42.708Z,43.25
2018-03-25T06:27:09.340Z,38.85
2018-03-25T06:29:36.092Z,40.15
2018-03-25T06:32:02.725Z,36.53
2018-03-25T06:34:29.464Z,45.45
2018-03-25T06:36:56.108Z,40.95
2018-03-25T06:39:22.752Z,43.35
2018-03-25T06:41:49.493Z,36.08
2018-03-25T06:44:16.126Z,45.53
2018-03-25T06:46:42.766Z,42.08
2018-03-25T06:49:09.417Z,39.15
2018-03-25T06:51:36.066Z,36.30
2018-03-25T06:54:02.687Z,43.10
2018-03-25T06:56:29.328Z,41.80
2018-03-25T06:58:56.073Z,42.67
2018-03-25T07:01:22.805Z,46.65
2018-03-25T07:03:49.553Z,44.35
2018-03-25T07:06:16.290Z,42.58
2018-03-25T07:08:42.964Z,39.78
2018-03-25T07:11:09.673Z,40.08
2018-03-25T07:13:36.414Z,36.67
2018-03-25T07:16:03.157Z,43.50
2018-03-25T07:18:29.780Z,39.80
2018-03-25T07:20:56.524Z,38.72
2018-03-25T07:23:23.163Z,44.78
2018-03-25T07:25:49.802Z,42.40
2018-03-25T07:28:16.443Z,39.67
2018-03-25T07:30:43.089Z,38.17
2018-03-25T07:33:09.833Z,43.28
2018-03-25T07:35:36.459Z,46.08
2018-03-25T07:38:03.208Z,41.42
2018-03-25T07:40:29.828Z,41.40
2018-03-25T07:42:56.469Z,44.72
2018-03-25T07:45:23.128Z,48.80
2018-03-25T07:47:49.764Z,40.63
2018-03-25T07:50:16.413Z,42.08
2018-03-25T07:52:43.054Z,42.65
2018-03-25T07:55:09.685Z,57.62
2018-03-25T07:57:36.323Z,50.30
2018-03-25T08:00:02.949Z,45.17
2018-03-25T08:02:29.627Z,44.40
2018-03-25T08:04:56.257Z,40.78
2018-03-25T08:07:22.896Z,47.45
2018-03-25T08:09:49.524Z,46.20
2018-03-25T08:12:16.183Z,44.88
2018-03-25T08:14:42.895Z,45.90
2018-03-25T08:17:09.539Z,47.78
2018-03-25T08:19:36.176Z,43.80
2018-03-25T08:22:02.806Z,44.15
2018-03-25T08:24:29.448Z,47.42
2018-03-25T08:26:56.082Z,51.33
2018-03-25T08:29:22.836Z,46.60
2018-03-25T08:31:49.469Z,49.15
2018-03-25T08:34:16.107Z,47.95
2018-03-25T08:36:42.734Z,43.55
2018-03-25T08:39:09.403Z,55.92
2018-03-25T08:41:36.041Z,45.00
2018-03-25T08:44:02.774Z,47.58
2018-03-25T08:46:29.463Z,52.83
2018-03-25T08:48:56.152Z,46.88
2018-03-25T08:51:22.817Z,49.63
2018-03-25T08:53:49.461Z,45.63
2018-03-25T08:56:16.100Z,47.65
2018-03-25T08:58:42.745Z,41.35
2018-03-25T09:01:09.457Z,40.65
2018-03-25T09:03:36.204Z,40.45
2018-03-25T09:06:02.839Z,46.58
2018-03-25T09:08:29.486Z,43.70
2018-03-25T09:10:56.126Z,38.45
2018-03-25T09:13:22.756Z,43.50
2018-03-25T09:15:49.452Z,38.65
2018-03-25T09:18:16.071Z,38.67
2018-03-25T09:20:42.772Z,39.75
2018-03-25T09:23:09.397Z,41.70
2018-03-25T09:25:36.045Z,46.03
2018-03-25T09:28:02.710Z,39.97
2018-03-25T09:30:29.424Z,40.28
2018-03-25T09:32:56.068Z,41.10
2018-03-25T09:35:22.810Z,37.83
2018-03-25T09:37:49.445Z,45.60
2018-03-25T09:40:16.190Z,39.35
2018-03-25T09:42:42.825Z,39.50
2018-03-25T09:45:09.476Z,40.12
2018-03-25T09:47:36.105Z,37.45
2018-03-25T09:50:03.740Z,40.47
2018-03-25T09:52:30.365Z,39.95
2018-03-25T09:54:57.053Z,40.30
2018-03-25T09:57:23.685Z,38.25
2018-03-25T09:59:50.313Z,36.72
2018-03-25T10:02:22.833Z,39.90
2018-03-25T10:04:49.559Z,37.70
2018-03-25T10:07:16.204Z,40.63
2018-03-25T10:09:42.833Z,39.00
2018-03-25T10:12:09.476Z,40.75
2018-03-25T10:14:36.109Z,36.58
2018-03-25T10:17:02.832Z,36.53
2018-03-25T10:19:29.482Z,41.75
2018-03-25T10:21:56.126Z,39.45
2018-03-25T10:24:22.756Z,38.58
2018-03-25T10:26:49.449Z,37.03
2018-03-25T10:29:16.141Z,36.63
2018-03-25T10:31:42.872Z,39.97
2018-03-25T10:34:09.501Z,44.72
2018-03-25T10:36:36.132Z,41.20
2018-03-25T10:39:02.760Z,40.33
2018-03-25T10:41:29.440Z,36.60
2018-03-25T10:43:56.069Z,43.05
2018-03-25T10:46:22.729Z,37.97
2018-03-25T10:48:49.425Z,39.70
2018-03-25T10:51:16.101Z,39.45
2018-03-25T10:53:42.758Z,40.92
2018-03-25T10:56:09.391Z,36.65
2018-03-25T10:58:36.046Z,37.03
2018-03-25T11:01:02.705Z,36.78
2018-03-25T11:03:29.357Z,33.85
2018-03-25T11:05:55.980Z,38.42
2018-03-25T11:08:22.630Z,35.58
2018-03-25T11:10:49.308Z,39.92
2018-03-25T11:13:16.049Z,37.85
2018-03-25T11:15:42.793Z,34.25
2018-03-25T11:18:09.532Z,39.70
2018-03-25T11:20:36.156Z,36.20
2018-03-25T11:23:02.805Z,37.90
2018-03-25T11:25:29.440Z,32.53
2018-03-25T11:27:56.198Z,39.17
2018-03-25T11:30:22.825Z,38.75
2018-03-25T11:32:49.571Z,41.15
2018-03-25T11:35:16.318Z,34.70
2018-03-25T11:37:42.949Z,40.12
2018-03-25T11:40:09.637Z,30.23
2018-03-25T11:42:36.233Z,50.08
2018-03-25T11:45:02.871Z,32.45
2018-03-25T11:47:29.649Z,36.22
2018-03-25T11:49:56.358Z,34.33
2018-03-25T11:52:23.093Z,35.08
2018-03-25T11:54:49.738Z,31.10
2018-03-25T11:57:16.471Z,33.75
2018-03-25T11:59:43.117Z,31.23
2018-03-25T12:02:09.750Z,32.72
2018-03-25T12:04:36.443Z,32.88
2018-03-25T12:07:03.033Z,38.00
2018-03-25T12:09:29.676Z,27.37
2018-03-25T12:11:56.413Z,28.70
2018-03-25T12:14:23.048Z,30.23
2018-03-25T12:16:49.672Z,32.60
2018-03-25T12:19:16.438Z,34.10
2018-03-25T12:21:43.060Z,31.33
2018-03-25T12:24:09.709Z,31.77
2018-03-25T12:26:36.440Z,32.17
2018-03-25T12:29:03.079Z,35.03
2018-03-25T12:31:29.824Z,33.20
2018-03-25T12:33:56.453Z,33.47
2018-03-25T12:36:23.221Z,32.13
2018-03-25T12:38:49.853Z,31.50
2018-03-25T12:41:16.493Z,31.52
2018-03-25T12:43:43.233Z,30.88
2018-03-25T12:46:09.964Z,31.80
2018-03-25T12:48:36.588Z,30.65
2018-03-25T12:51:03.228Z,33.10
2018-03-25T12:53:29.893Z,28.08
2018-03-25T12:55:56.524Z,28.12
2018-03-25T12:58:23.157Z,27.48
2018-03-25T13:00:49.810Z,27.27
2018-03-25T13:03:16.445Z,24.15
2018-03-25T13:05:43.183Z,29.92
2018-03-25T13:08:09.829Z,26.95
2018-03-25T13:10:36.597Z,30.30
2018-03-25T13:13:03.308Z,28.30
2018-03-25T13:15:30.305Z,25.83
2018-03-25T13:17:57.053Z,27.70
2018-03-25T13:20:23.680Z,36.20
2018-03-25T13:22:50.324Z,26.37
2018-03-25T13:25:16.962Z,27.25
2018-03-25T13:27:43.600Z,29.83
2018-03-25T13:30:10.297Z,28.55
2018-03-25T13:32:37.060Z,26.85
2018-03-25T13:35:03.772Z,37.95
2018-03-25T13:37:30.421Z,27.80
2018-03-25T13:39:57.053Z,26.00
2018-03-25T13:42:23.701Z,28.50
2018-03-25T13:44:50.336Z,29.85
2018-03-25T13:47:16.988Z,24.95
2018-03-25T13:49:43.627Z,28.20
2018-03-25T13:52:10.264Z,28.70
2018-03-25T13:54:36.989Z,45.17
2018-03-25T13:57:03.729Z,24.57
2018-03-25T13:59:30.363Z,24.90
2018-03-25T14:01:57.008Z,32.33
2018-03-25T14:04:23.653Z,25.83
2018-03-25T14:06:50.284Z,25.70
2018-03-25T14:09:16.921Z,26.90
2018-03-25T14:11:43.552Z,26.50
2018-03-25T14:14:10.192Z,25.47
2018-03-25T14:16:36.868Z,25.90
2018-03-25T14:19:03.580Z,24.57
2018-03-25T14:21:30.208Z,24.10
2018-03-25T14:23:56.960Z,24.40
2018-03-25T14:26:23.584Z,22.23
2018-03-25T14:28:50.249Z,23.30
2018-03-25T14:31:16.881Z,28.40
2018-03-25T14:33:43.616Z,26.67
2018-03-25T14:36:10.246Z,25.00
2018-03-25T14:38:36.888Z,25.07
2018-03-25T14:41:03.538Z,24.03
2018-03-25T14:43:30.177Z,24.03
2018-03-25T14:45:56.955Z,22.77
2018-03-25T14:48:23.597Z,23.53
2018-03-25T14:50:50.359Z,28.37
2018-03-25T14:53:16.985Z,23.53
2018-03-25T14:55:43.690Z,25.97
2018-03-25T14:58:10.429Z,23.53
2018-03-25T15:00:37.077Z,24.03
2018-03-25T15:03:03.715Z,22.57
2018-03-25T15:05:30.446Z,27.30
2018-03-25T15:07:57.172Z,24.30
2018-03-25T15:10:23.826Z,24.37
2018-03-25T15:12:50.451Z,23.83
2018-03-25T15:15:17.093Z,23.07
2018-03-25T15:17:43.724Z,21.87
2018-03-25T15:20:10.368Z,24.20
2018-03-25T15:22:36.995Z,28.97
2018-03-25T15:25:03.660Z,21.17
2018-03-25T15:27:30.398Z,26.73
2018-03-25T15:29:57.036Z,23.80
2018-03-25T15:32:23.659Z,21.40
2018-03-25T15:34:50.365Z,25.07
2018-03-25T15:37:17.062Z,23.67
2018-03-25T15:39:43.710Z,23.13
2018-03-25T15:42:10.346Z,22.57
2018-03-25T15:44:36.982Z,27.67
2018-03-25T15:47:03.625Z,24.90
2018-03-25T15:49:30.364Z,22.27
2018-03-25T15:51:57.087Z,26.73
2018-03-25T15:54:23.720Z,24.52
2018-03-25T15:56:50.364Z,25.88
2018-03-25T15:59:17.008Z,21.42
2018-03-25T16:01:43.753Z,25.65
2018-03-25T16:04:10.498Z,25.88
2018-03-25T16:06:37.141Z,25.12
2018-03-25T16:09:03.778Z,23.83
2018-03-25T16:11:30.513Z,25.20
2018-03-25T16:13:57.149Z,27.30
2018-03-25T16:16:23.788Z,30.27
2018-03-25T16:18:50.437Z,28.27
2018-03-25T16:21:17.181Z,29.73
2018-03-25T16:23:43.819Z,30.50
2018-03-25T16:26:10.466Z,28.50
2018-03-25T16:28:37.196Z,26.30
2018-03-25T16:31:03.833Z,25.85
2018-03-25T16:33:30.479Z,24.70
2018-03-25T16:35:57.118Z,30.62
2018-03-25T16:38:23.755Z,28.48
2018-03-25T16:40:50.394Z,26.98
2018-03-25T16:43:17.027Z,26.52
2018-03-25T16:45:43.768Z,27.45
2018-03-25T16:48:10.414Z,25.65
2018-03-25T16:50:37.150Z,26.75
2018-03-25T16:53:03.792Z,28.80
2018-03-25T16:55:30.421Z,33.33
2018-03-25T16:57:57.066Z,31.12
2018-03-25T17:00:23.809Z,29.58
2018-03-25T17:02:50.467Z,31.60
2018-03-25T17:05:17.189Z,33.10
2018-03-25T17:07:43.834Z,33.67
2018-03-25T17:10:10.466Z,31.33
2018-03-25T17:12:37.207Z,34.78
2018-03-25T17:15:03.944Z,33.05
2018-03-25T17:17:30.716Z,33.60
2018-03-25T17:19:57.355Z,32.00
2018-03-25T17:22:24.072Z,31.45
2018-03-25T17:24:50.712Z,27.73
2018-03-25T17:27:17.346Z,30.62
2018-03-25T17:29:44.095Z,34.70
2018-03-25T17:32:10.728Z,32.17
2018-03-25T17:34:37.478Z,35.15
2018-03-25T17:37:04.111Z,31.12
2018-03-25T17:39:30.744Z,37.22
2018-03-25T17:41:57.425Z,34.08
2018-03-25T17:44:24.019Z,35.77
2018-03-25T17:46:50.644Z,34.25
2018-03-25T17:49:17.303Z,33.40
2018-03-25T17:51:44.048Z,31.67
2018-03-25T17:54:10.689Z,37.33
2018-03-25T17:56:37.325Z,37.67
2018-03-25T17:59:03.981Z,48.53
2018-03-25T18:01:30.733Z,38.70
2018-03-25T18:03:57.379Z,36.38
2018-03-25T18:06:24.099Z,33.45
2018-03-25T18:08:50.729Z,30.40
2018-03-25T18:11:17.369Z,39.85
2018-03-25T18:13:43.997Z,33.90
2018-03-25T18:16:10.667Z,37.92
2018-03-25T18:18:37.297Z,33.20
2018-03-25T18:21:04.022Z,31.48
2018-03-25T18:23:30.660Z,36.47
2018-03-25T18:25:57.374Z,34.65
2018-03-25T18:28:23.963Z,39.67
2018-03-25T18:30:50.708Z,32.17
2018-03-25T18:33:17.475Z,29.45
2018-03-25T18:35:44.162Z,31.98
2018-03-25T18:38:10.800Z,30.55
2018-03-25T18:40:37.547Z,27.95
2018-03-25T18:43:04.179Z,32.85
2018-03-25T18:45:30.822Z,37.53
2018-03-25T18:47:57.502Z,31.87
2018-03-25T18:50:24.135Z,36.90
2018-03-25T18:52:50.756Z,45.50
2018-03-25T18:55:17.439Z,40.90
2018-03-25T18:57:44.120Z,37.83
2018-03-25T19:00:10.754Z,35.20
2018-03-25T19:02:37.401Z,39.00
2018-03-25T19:05:04.038Z,30.62
2018-03-25T19:07:30.675Z,38.40
2018-03-25T19:09:57.352Z,32.88
2018-03-25T19:12:23.980Z,31.62
2018-03-25T19:14:50.697Z,39.25
2018-03-25T19:17:17.437Z,41.33
2018-03-25T19:19:44.105Z,41.08
2018-03-25T19:22:10.849Z,102.12
2018-03-25T19:24:37.565Z,72.00
2018-03-25T19:27:04.304Z,54.67
2018-03-25T19:29:30.927Z,57.70
2018-03-25T19:31:57.694Z,53.95
2018-03-25T19:34:24.433Z,55.92
2018-03-25T19:36:51.166Z,56.67
2018-03-25T19:39:17.934Z,78.32
2018-03-25T19:41:44.672Z,49.03
2018-03-25T19:44:11.305Z,45.60
2018-03-25T19:46:38.033Z,43.05
2018-03-25T19:49:04.723Z,39.13
2018-03-25T19:51:31.421Z,35.72
2018-03-25T19:53:58.067Z,45.60
2018-03-25T19:56:24.788Z,34.08
2018-03-25T19:58:51.438Z,37.03
2018-03-25T20:01:18.094Z,36.30
2018-03-25T20:03:44.778Z,40.88
2018-03-25T20:06:11.374Z,34.90
2018-03-25T20:08:38.117Z,34.03
2018-03-25T20:11:04.835Z,38.10
2018-03-25T20:13:31.480Z,39.38
2018-03-25T20:15:58.116Z,37.92
2018-03-25T20:18:24.839Z,30.23
2018-03-25T20:20:51.484Z,36.25
2018-03-25T20:23:18.137Z,33.47
2018-03-25T20:25:44.765Z,32.03
2018-03-25T20:28:11.509Z,36.85
2018-03-25T20:30:38.137Z,31.12
2018-03-25T20:33:04.880Z,35.55
2018-03-25T20:35:31.534Z,33.83
2018-03-25T20:37:58.174Z,41.35
2018-03-25T20:40:24.814Z,56.45
2018-03-25T20:42:51.451Z,46.92
2018-03-25T20:45:18.194Z,31.37
2018-03-25T20:47:44.825Z,34.83
2018-03-25T20:50:11.568Z,36.22
2018-03-25T20:52:38.200Z,36.20
2018-03-25T20:55:04.855Z,35.38
2018-03-25T20:57:31.498Z,35.38
2018-03-25T20:59:58.148Z,37.55
2018-03-25T21:02:24.832Z,34.05
2018-03-25T21:04:51.530Z,38.85
2018-03-25T21:07:18.171Z,42.50
2018-03-25T21:09:44.845Z,39.00
2018-03-25T21:12:11.480Z,38.47
2018-03-25T21:14:38.126Z,41.40
2018-03-25T21:17:04.763Z,42.38
2018-03-25T21:19:31.407Z,41.08
2018-03-25T21:21:58.082Z,49.08
2018-03-25T21:24:24.704Z,40.97
2018-03-25T21:26:51.353Z,47.95
2018-03-25T21:29:18.045Z,46.97
2018-03-25T21:31:44.684Z,43.45
2018-03-25T21:34:11.318Z,50.17
2018-03-25T21:36:37.956Z,44.90
2018-03-25T21:39:04.590Z,44.13
2018-03-25T21:41:31.237Z,49.00
2018-03-25T21:43:57.933Z,43.92
2018-03-25T21:46:24.599Z,47.38
2018-03-25T21:48:51.308Z,46.10
2018-03-25T21:51:17.962Z,39.75
2018-03-25T21:53:44.599Z,41.45
2018-03-25T21:56:11.252Z,34.78
2018-03-25T21:58:37.871Z,40.47
2018-03-25T22:01:04.618Z,41.45
2018-03-25T22:03:31.283Z,34.53
2018-03-25T22:05:57.905Z,38.80
2018-03-25T22:08:24.635Z,40.58
2018-03-25T22:10:51.284Z,40.00
2018-03-25T22:13:17.926Z,41.42
2018-03-25T22:15:44.651Z,40.05
2018-03-25T22:18:11.416Z,37.38
2018-03-25T22:20:38.129Z,38.70
2018-03-25T22:23:04.864Z,35.72
2018-03-25T22:25:31.517Z,35.28
2018-03-25T22:27:58.179Z,35.38
2018-03-25T22:30:24.893Z,38.17
2018-03-25T22:32:51.541Z,32.47
2018-03-25T22:35:18.180Z,36.95
2018-03-25T22:37:44.820Z,36.30
2018-03-25T22:40:11.448Z,31.33
2018-03-25T22:42:38.112Z,37.85
2018-03-25T22:45:04.824Z,33.88
2018-03-25T22:47:31.581Z,35.22
2018-03-25T22:49:58.210Z,32.33
2018-03-25T22:52:24.854Z,32.50
2018-03-25T22:54:51.596Z,31.30
2018-03-25T22:57:18.253Z,32.60
2018-03-25T22:59:44.899Z,39.25
2018-03-25T23:02:11.537Z,42.05
2018-03-25T23:04:38.248Z,46.47
2018-03-25T23:07:04.990Z,36.55
2018-03-25T23:09:31.638Z,34.67
2018-03-25T23:11:58.260Z,45.17
2018-03-25T23:14:25.005Z,30.42
2018-03-25T23:16:51.634Z,40.45
2018-03-25T23:19:18.277Z,38.05
2018-03-25T23:21:44.917Z,30.17
2018-03-25T23:24:11.556Z,36.10
2018-03-25T23:26:38.180Z,38.75
2018-03-25T23:29:04.849Z,40.12
2018-03-25T23:31:31.586Z,38.65
2018-03-25T23:33:58.332Z,33.13
2018-03-25T23:36:25.068Z,41.13
2018-03-25T23:38:51.708Z,42.15
2018-03-25T23:41:18.342Z,50.00
2018-03-25T23:43:45.093Z,42.25
2018-03-25T23:46:11.729Z,42.08
2018-03-25T23:48:38.364Z,41.30
2018-03-25T23:51:05.003Z,35.05
2018-03-25T23:53:31.638Z,41.47
2018-03-25T23:55:58.289Z,45.97
2018-03-25T23:58:24.916Z,39.03
